sensor_id;sensor_type;location;lat;lon;timestamp;pressure;altitude;pressure_sealevel;temperature;humidity
75759;BME280;64371;47.566;19.086;2023-05-23T00:00:24;100147.66;;;15.88;80.75
75759;BME280;64371;47.566;19.086;2023-05-23T00:03:27;100154.28;;;15.74;81.58
75759;BME280;64371;47.566;19.086;2023-05-23T00:06:34;100144.91;;;15.68;81.78
75759;BME280;64371;47.566;19.086;2023-05-23T00:09:37;100159.31;;;15.67;81.78
75759;BME280;64371;47.566;19.086;2023-05-23T00:12:39;100149.75;;;15.66;82.53
75759;BME280;64371;47.566;19.086;2023-05-23T00:15:44;100150.22;;;15.68;82.01
75759;BME280;64371;47.566;19.086;2023-05-23T00:18:46;100155.53;;;15.68;81.46
75759;BME280;64371;47.566;19.086;2023-05-23T00:21:48;100127.41;;;15.58;82.03
75759;BME280;64371;47.566;19.086;2023-05-23T00:24:51;100144.91;;;15.68;81.89
75759;BME280;64371;47.566;19.086;2023-05-23T00:27:54;100146.13;;;15.79;81.46
75759;BME280;64371;47.566;19.086;2023-05-23T00:30:56;100130.25;;;15.62;81.06
75759;BME280;64371;47.566;19.086;2023-05-23T00:33:58;100148.19;;;15.65;81.83
75759;BME280;64371;47.566;19.086;2023-05-23T00:37:01;100138.50;;;15.60;81.73
75759;BME280;64371;47.566;19.086;2023-05-23T00:40:04;100154.00;;;15.58;81.99
75759;BME280;64371;47.566;19.086;2023-05-23T00:43:06;100156.34;;;15.51;82.69
75759;BME280;64371;47.566;19.086;2023-05-23T00:46:13;100158.09;;;15.47;82.76
75759;BME280;64371;47.566;19.086;2023-05-23T00:49:15;100156.69;;;15.50;83.28
75759;BME280;64371;47.566;19.086;2023-05-23T00:52:22;100153.22;;;15.41;83.83
75759;BME280;64371;47.566;19.086;2023-05-23T00:55:28;100154.31;;;15.31;84.46
75759;BME280;64371;47.566;19.086;2023-05-23T00:58:31;100152.16;;;15.33;84.07
75759;BME280;64371;47.566;19.086;2023-05-23T01:01:34;100135.44;;;15.33;83.75
75759;BME280;64371;47.566;19.086;2023-05-23T01:04:38;100146.66;;;15.38;82.86
75759;BME280;64371;47.566;19.086;2023-05-23T01:07:40;100145.56;;;15.39;82.96
75759;BME280;64371;47.566;19.086;2023-05-23T01:10:42;100148.38;;;15.43;82.99
75759;BME280;64371;47.566;19.086;2023-05-23T01:13:52;100142.28;;;15.42;82.51
75759;BME280;64371;47.566;19.086;2023-05-23T01:17:09;100149.00;;;15.40;82.72
75759;BME280;64371;47.566;19.086;2023-05-23T01:20:20;100145.56;;;15.39;82.36
75759;BME280;64371;47.566;19.086;2023-05-23T01:23:43;100139.31;;;15.35;82.77
75759;BME280;64371;47.566;19.086;2023-05-23T01:30:18;100141.06;;;15.22;82.92
75759;BME280;64371;47.566;19.086;2023-05-23T01:33:22;100141.22;;;15.17;83.54
75759;BME280;64371;47.566;19.086;2023-05-23T01:36:25;100140.13;;;15.10;84.13
75759;BME280;64371;47.566;19.086;2023-05-23T01:39:27;100121.84;;;15.00;83.87
75759;BME280;64371;47.566;19.086;2023-05-23T01:42:30;100146.84;;;15.16;84.40
75759;BME280;64371;47.566;19.086;2023-05-23T01:45:32;100145.59;;;15.05;84.45
75759;BME280;64371;47.566;19.086;2023-05-23T01:48:37;100142.16;;;15.04;84.20
75759;BME280;64371;47.566;19.086;2023-05-23T01:51:41;100141.69;;;15.02;84.54
75759;BME280;64371;47.566;19.086;2023-05-23T01:54:44;100130.91;;;14.90;84.34
75759;BME280;64371;47.566;19.086;2023-05-23T01:57:58;100135.44;;;14.81;85.58
75759;BME280;64371;47.566;19.086;2023-05-23T02:01:00;100128.25;;;14.73;85.28
75759;BME280;64371;47.566;19.086;2023-05-23T02:04:04;100125.44;;;14.70;85.47
75759;BME280;64371;47.566;19.086;2023-05-23T02:07:06;100117.03;;;14.68;85.61
75759;BME280;64371;47.566;19.086;2023-05-23T02:10:09;100121.06;;;14.65;84.80
75759;BME280;64371;47.566;19.086;2023-05-23T02:13:12;100117.31;;;14.66;84.88
75759;BME280;64371;47.566;19.086;2023-05-23T02:16:14;100118.44;;;14.65;84.71
75759;BME280;64371;47.566;19.086;2023-05-23T02:19:17;100120.75;;;14.58;84.95
75759;BME280;64371;47.566;19.086;2023-05-23T02:22:23;100117.28;;;14.49;84.96
75759;BME280;64371;47.566;19.086;2023-05-23T02:25:26;100122.16;;;14.55;85.57
75759;BME280;64371;47.566;19.086;2023-05-23T02:28:29;100120.59;;;14.54;85.20
75759;BME280;64371;47.566;19.086;2023-05-23T02:31:31;100121.19;;;14.51;85.65
75759;BME280;64371;47.566;19.086;2023-05-23T02:34:34;100124.00;;;14.46;85.59
75759;BME280;64371;47.566;19.086;2023-05-23T02:37:36;100130.09;;;14.47;85.97
75759;BME280;64371;47.566;19.086;2023-05-23T02:40:39;100116.50;;;14.40;85.83
75759;BME280;64371;47.566;19.086;2023-05-23T02:43:41;100116.50;;;14.40;85.86
75759;BME280;64371;47.566;19.086;2023-05-23T02:46:47;100119.16;;;14.40;86.41
75759;BME280;64371;47.566;19.086;2023-05-23T02:49:52;100124.00;;;14.38;86.51
75759;BME280;64371;47.566;19.086;2023-05-23T02:52:54;100122.66;;;14.27;86.73
75759;BME280;64371;47.566;19.086;2023-05-23T02:55:57;100124.78;;;14.08;87.45
75759;BME280;64371;47.566;19.086;2023-05-23T02:58:59;100120.00;;;14.18;87.73
75759;BME280;64371;47.566;19.086;2023-05-23T03:02:02;100114.06;;;14.13;86.92
75759;BME280;64371;47.566;19.086;2023-05-23T03:05:04;100115.50;;;14.27;86.85
75759;BME280;64371;47.566;19.086;2023-05-23T03:08:07;100122.06;;;14.30;86.22
75759;BME280;64371;47.566;19.086;2023-05-23T03:11:10;100120.03;;;14.27;86.41
75759;BME280;64371;47.566;19.086;2023-05-23T03:14:13;100115.97;;;14.21;86.61
75759;BME280;64371;47.566;19.086;2023-05-23T03:17:15;100113.97;;;14.26;86.08
75759;BME280;64371;47.566;19.086;2023-05-23T03:20:18;100114.78;;;14.35;85.28
75759;BME280;64371;47.566;19.086;2023-05-23T03:23:21;100125.06;;;14.37;85.79
75759;BME280;64371;47.566;19.086;2023-05-23T03:26:24;100134.47;;;14.43;85.64
75759;BME280;64371;47.566;19.086;2023-05-23T03:29:26;100135.38;;;14.38;85.91
75759;BME280;64371;47.566;19.086;2023-05-23T03:32:28;100134.88;;;14.36;86.07
75759;BME280;64371;47.566;19.086;2023-05-23T03:35:30;100124.38;;;14.23;87.37
75759;BME280;64371;47.566;19.086;2023-05-23T03:38:33;100128.75;;;14.27;87.12
75759;BME280;64371;47.566;19.086;2023-05-23T03:41:35;100121.00;;;14.31;86.86
75759;BME280;64371;47.566;19.086;2023-05-23T03:44:38;100119.16;;;14.31;86.94
75759;BME280;64371;47.566;19.086;2023-05-23T03:47:41;100117.56;;;14.39;86.05
75759;BME280;64371;47.566;19.086;2023-05-23T03:50:44;100124.78;;;14.38;86.31
75759;BME280;64371;47.566;19.086;2023-05-23T03:53:46;100135.06;;;14.48;85.44
75759;BME280;64371;47.566;19.086;2023-05-23T03:56:49;100132.91;;;14.50;85.57
75759;BME280;64371;47.566;19.086;2023-05-23T03:59:52;100136.31;;;14.51;85.46
75759;BME280;64371;47.566;19.086;2023-05-23T04:02:55;100128.72;;;14.58;84.84
75759;BME280;64371;47.566;19.086;2023-05-23T04:05:59;100129.03;;;14.65;85.03
75759;BME280;64371;47.566;19.086;2023-05-23T04:09:02;100125.59;;;14.73;84.56
75759;BME280;64371;47.566;19.086;2023-05-23T04:12:07;100125.16;;;14.80;83.99
75759;BME280;64371;47.566;19.086;2023-05-23T04:15:11;100125.94;;;14.89;83.25
75759;BME280;64371;47.566;19.086;2023-05-23T04:18:24;100134.97;;;14.96;83.04
75759;BME280;64371;47.566;19.086;2023-05-23T04:21:27;100130.28;;;14.93;83.19
75759;BME280;64371;47.566;19.086;2023-05-23T04:24:38;100134.03;;;15.09;81.99
75759;BME280;64371;47.566;19.086;2023-05-23T04:27:41;100138.72;;;15.21;81.71
75759;BME280;64371;47.566;19.086;2023-05-23T04:30:44;100134.47;;;15.37;81.20
75759;BME280;64371;47.566;19.086;2023-05-23T04:33:47;100131.38;;;15.90;78.84
75759;BME280;64371;47.566;19.086;2023-05-23T04:36:52;100128.50;;;16.33;77.25
75759;BME280;64371;47.566;19.086;2023-05-23T04:39:55;100130.59;;;16.77;74.78
75759;BME280;64371;47.566;19.086;2023-05-23T04:43:20;100125.59;;;16.96;73.91
75759;BME280;64371;47.566;19.086;2023-05-23T04:46:26;100130.38;;;17.23;72.78
75759;BME280;64371;47.566;19.086;2023-05-23T04:49:49;100125.97;;;17.60;70.65
75759;BME280;64371;47.566;19.086;2023-05-23T04:52:52;100129.69;;;18.04;69.01
75759;BME280;64371;47.566;19.086;2023-05-23T04:55:55;100121.19;;;17.90;69.35
75759;BME280;64371;47.566;19.086;2023-05-23T04:58:58;100122.53;;;17.84;69.27
75759;BME280;64371;47.566;19.086;2023-05-23T05:02:01;100121.06;;;17.30;71.35
75759;BME280;64371;47.566;19.086;2023-05-23T05:05:04;100123.72;;;17.30;71.85
75759;BME280;64371;47.566;19.086;2023-05-23T05:08:07;100120.53;;;17.69;70.45
75759;BME280;64371;47.566;19.086;2023-05-23T05:11:10;100111.44;;;18.06;69.66
75759;BME280;64371;47.566;19.086;2023-05-23T05:14:12;100121.41;;;18.70;68.13
75759;BME280;64371;47.566;19.086;2023-05-23T05:17:15;100126.06;;;19.28;66.00
75759;BME280;64371;47.566;19.086;2023-05-23T05:20:50;100129.09;;;19.70;63.70
75759;BME280;64371;47.566;19.086;2023-05-23T05:23:52;100130.44;;;20.42;61.96
75759;BME280;64371;47.566;19.086;2023-05-23T05:26:55;100130.78;;;20.94;59.57
75759;BME280;64371;47.566;19.086;2023-05-23T05:29:58;100133.66;;;20.67;59.37
75759;BME280;64371;47.566;19.086;2023-05-23T05:33:08;100132.31;;;20.95;58.27
75759;BME280;64371;47.566;19.086;2023-05-23T05:36:11;100125.91;;;20.81;58.46
75759;BME280;64371;47.566;19.086;2023-05-23T05:39:15;100130.22;;;21.04;58.03
75759;BME280;64371;47.566;19.086;2023-05-23T05:42:18;100126.06;;;21.49;56.82
75759;BME280;64371;47.566;19.086;2023-05-23T05:45:20;100131.28;;;21.61;56.37
75759;BME280;64371;47.566;19.086;2023-05-23T05:48:23;100126.06;;;21.91;55.56
75759;BME280;64371;47.566;19.086;2023-05-23T05:51:28;100127.22;;;22.16;54.10
75759;BME280;64371;47.566;19.086;2023-05-23T05:54:31;100131.97;;;20.97;57.45
75759;BME280;64371;47.566;19.086;2023-05-23T05:57:33;100131.63;;;20.44;59.18
75759;BME280;64371;47.566;19.086;2023-05-23T06:00:36;100124.94;;;20.19;60.24
75759;BME280;64371;47.566;19.086;2023-05-23T06:03:43;100123.19;;;20.42;59.72
75759;BME280;64371;47.566;19.086;2023-05-23T06:06:46;100118.91;;;20.57;59.00
75759;BME280;64371;47.566;19.086;2023-05-23T06:09:49;100126.84;;;21.07;57.94
75759;BME280;64371;47.566;19.086;2023-05-23T06:12:51;100134.13;;;22.17;54.48
75759;BME280;64371;47.566;19.086;2023-05-23T06:15:54;100135.19;;;21.86;54.73
75759;BME280;64371;47.566;19.086;2023-05-23T06:18:58;100134.94;;;22.73;52.89
75759;BME280;64371;47.566;19.086;2023-05-23T06:22:02;100134.16;;;23.02;52.33
75759;BME280;64371;47.566;19.086;2023-05-23T06:25:06;100136.22;;;23.49;51.23
75759;BME280;64371;47.566;19.086;2023-05-23T06:28:09;100132.84;;;23.59;49.91
75759;BME280;64371;47.566;19.086;2023-05-23T06:31:11;100132.41;;;24.59;48.02
75759;BME280;64371;47.566;19.086;2023-05-23T06:34:15;100130.00;;;25.37;47.72
75759;BME280;64371;47.566;19.086;2023-05-23T06:37:20;100126.97;;;26.37;43.70
75759;BME280;64371;47.566;19.086;2023-05-23T06:40:23;100128.38;;;26.77;44.11
75759;BME280;64371;47.566;19.086;2023-05-23T06:43:27;100128.94;;;27.23;43.16
75759;BME280;64371;47.566;19.086;2023-05-23T06:46:46;100120.03;;;25.97;43.50
75759;BME280;64371;47.566;19.086;2023-05-23T06:49:49;100124.25;;;26.44;43.70
75759;BME280;64371;47.566;19.086;2023-05-23T06:52:56;100124.56;;;27.47;41.84
75759;BME280;64371;47.566;19.086;2023-05-23T06:55:58;100122.22;;;27.97;40.65
75759;BME280;64371;47.566;19.086;2023-05-23T06:59:01;100122.25;;;27.93;39.69
75759;BME280;64371;47.566;19.086;2023-05-23T07:02:04;100114.19;;;27.86;41.13
75759;BME280;64371;47.566;19.086;2023-05-23T07:05:08;100113.91;;;27.74;41.66
75759;BME280;64371;47.566;19.086;2023-05-23T07:08:22;100107.78;;;27.08;41.55
75759;BME280;64371;47.566;19.086;2023-05-23T07:11:35;100107.59;;;27.87;40.06
75759;BME280;64371;47.566;19.086;2023-05-23T07:14:38;100111.72;;;28.06;39.61
75759;BME280;64371;47.566;19.086;2023-05-23T07:17:41;100097.84;;;27.93;39.43
75759;BME280;64371;47.566;19.086;2023-05-23T07:20:44;100097.75;;;27.63;39.61
75759;BME280;64371;47.566;19.086;2023-05-23T07:23:50;100087.47;;;27.37;41.14
75759;BME280;64371;47.566;19.086;2023-05-23T07:26:54;100091.09;;;27.71;39.10
75759;BME280;64371;47.566;19.086;2023-05-23T07:29:57;100097.28;;;27.72;39.92
75759;BME280;64371;47.566;19.086;2023-05-23T07:33:00;100093.16;;;28.01;39.28
75759;BME280;64371;47.566;19.086;2023-05-23T07:36:03;100097.03;;;28.41;38.64
75759;BME280;64371;47.566;19.086;2023-05-23T07:39:05;100095.25;;;27.28;40.74
75759;BME280;64371;47.566;19.086;2023-05-23T07:42:08;100091.09;;;28.83;37.61
75759;BME280;64371;47.566;19.086;2023-05-23T07:45:12;100091.00;;;29.17;36.56
75759;BME280;64371;47.566;19.086;2023-05-23T07:48:18;100086.94;;;29.32;36.49
75759;BME280;64371;47.566;19.086;2023-05-23T07:51:21;100084.53;;;28.80;37.07
75759;BME280;64371;47.566;19.086;2023-05-23T07:54:25;100087.88;;;28.91;36.64
75759;BME280;64371;47.566;19.086;2023-05-23T07:57:32;100070.16;;;29.10;36.64
75759;BME280;64371;47.566;19.086;2023-05-23T08:00:36;100073.69;;;29.84;35.03
75759;BME280;64371;47.566;19.086;2023-05-23T08:03:52;100075.25;;;29.58;35.82
75759;BME280;64371;47.566;19.086;2023-05-23T08:07:03;100077.72;;;29.72;36.63
75759;BME280;64371;47.566;19.086;2023-05-23T08:10:39;100078.50;;;29.73;37.08
75759;BME280;64371;47.566;19.086;2023-05-23T08:13:48;100078.06;;;30.60;34.54
75759;BME280;64371;47.566;19.086;2023-05-23T08:17:20;100080.59;;;31.06;32.81
75759;BME280;64371;47.566;19.086;2023-05-23T08:20:23;100078.88;;;30.96;33.45
75759;BME280;64371;47.566;19.086;2023-05-23T08:23:33;100079.59;;;30.61;34.30
75759;BME280;64371;47.566;19.086;2023-05-23T08:26:35;100075.47;;;30.33;35.36
75759;BME280;64371;47.566;19.086;2023-05-23T08:29:41;100078.94;;;29.71;35.60
75759;BME280;64371;47.566;19.086;2023-05-23T08:32:44;100062.34;;;29.89;35.48
75759;BME280;64371;47.566;19.086;2023-05-23T08:35:47;100079.06;;;29.64;35.09
75759;BME280;64371;47.566;19.086;2023-05-23T08:38:52;100071.81;;;29.81;35.60
75759;BME280;64371;47.566;19.086;2023-05-23T08:42:01;100062.91;;;30.00;35.29
75759;BME280;64371;47.566;19.086;2023-05-23T08:45:11;100077.56;;;30.06;34.36
75759;BME280;64371;47.566;19.086;2023-05-23T08:48:15;100067.47;;;30.46;33.55
75759;BME280;64371;47.566;19.086;2023-05-23T08:51:25;100065.91;;;30.05;34.47
75759;BME280;64371;47.566;19.086;2023-05-23T08:54:29;100074.78;;;30.09;34.44
75759;BME280;64371;47.566;19.086;2023-05-23T08:57:33;100067.44;;;30.26;34.23
75759;BME280;64371;47.566;19.086;2023-05-23T09:00:52;100063.06;;;30.12;34.06
75759;BME280;64371;47.566;19.086;2023-05-23T09:03:56;100058.78;;;29.45;35.99
75759;BME280;64371;47.566;19.086;2023-05-23T09:07:11;100067.72;;;30.12;33.75
75759;BME280;64371;47.566;19.086;2023-05-23T09:10:18;100061.31;;;30.81;33.54
75759;BME280;64371;47.566;19.086;2023-05-23T09:13:25;100068.78;;;30.57;33.88
75759;BME280;64371;47.566;19.086;2023-05-23T09:16:34;100071.72;;;30.66;33.52
75759;BME280;64371;47.566;19.086;2023-05-23T09:19:43;100063.06;;;30.32;33.26
75759;BME280;64371;47.566;19.086;2023-05-23T09:23:10;100054.84;;;30.36;33.47
75759;BME280;64371;47.566;19.086;2023-05-23T09:26:15;100061.94;;;30.10;33.60
75759;BME280;64371;47.566;19.086;2023-05-23T09:29:19;100055.72;;;29.17;34.60
75759;BME280;64371;47.566;19.086;2023-05-23T09:32:22;100058.19;;;29.08;34.51
75759;BME280;64371;47.566;19.086;2023-05-23T09:35:27;100054.31;;;29.35;34.63
75759;BME280;64371;47.566;19.086;2023-05-23T09:38:29;100052.00;;;30.43;33.41
75759;BME280;64371;47.566;19.086;2023-05-23T09:41:33;100061.97;;;30.30;33.78
75759;BME280;64371;47.566;19.086;2023-05-23T09:44:40;100049.34;;;29.30;36.08
75759;BME280;64371;47.566;19.086;2023-05-23T09:47:51;100051.97;;;28.50;37.00
75759;BME280;64371;47.566;19.086;2023-05-23T09:50:55;100053.75;;;29.21;35.70
75759;BME280;64371;47.566;19.086;2023-05-23T09:53:57;100044.31;;;29.52;34.31
75759;BME280;64371;47.566;19.086;2023-05-23T09:57:01;100045.50;;;30.17;33.72
75759;BME280;64371;47.566;19.086;2023-05-23T10:00:04;100038.47;;;31.11;31.40
75759;BME280;64371;47.566;19.086;2023-05-23T10:03:16;100053.09;;;30.45;32.52
75759;BME280;64371;47.566;19.086;2023-05-23T10:06:25;100042.16;;;30.49;31.30
75759;BME280;64371;47.566;19.086;2023-05-23T10:09:32;100047.91;;;30.35;32.15
75759;BME280;64371;47.566;19.086;2023-05-23T10:12:49;100034.53;;;29.35;34.65
75759;BME280;64371;47.566;19.086;2023-05-23T10:16:14;100029.31;;;27.96;37.44
75759;BME280;64371;47.566;19.086;2023-05-23T10:19:39;100028.16;;;27.97;38.16
75759;BME280;64371;47.566;19.086;2023-05-23T10:22:45;100024.75;;;27.90;37.31
75759;BME280;64371;47.566;19.086;2023-05-23T10:25:47;100018.19;;;28.85;36.19
75759;BME280;64371;47.566;19.086;2023-05-23T10:28:51;100015.84;;;28.87;36.74
75759;BME280;64371;47.566;19.086;2023-05-23T10:31:54;100023.59;;;29.12;35.54
75759;BME280;64371;47.566;19.086;2023-05-23T10:35:09;100020.28;;;29.01;35.89
75759;BME280;64371;47.566;19.086;2023-05-23T10:38:44;100020.72;;;28.72;37.83
75759;BME280;64371;47.566;19.086;2023-05-23T10:41:59;100016.69;;;27.83;38.34
75759;BME280;64371;47.566;19.086;2023-05-23T10:45:19;100017.88;;;28.19;38.19
75759;BME280;64371;47.566;19.086;2023-05-23T10:48:32;100021.56;;;28.32;38.02
75759;BME280;64371;47.566;19.086;2023-05-23T10:51:39;100024.13;;;27.27;39.57
75759;BME280;64371;47.566;19.086;2023-05-23T10:54:52;100015.91;;;27.41;39.57
75759;BME280;64371;47.566;19.086;2023-05-23T10:58:17;100004.59;;;27.53;39.53
75759;BME280;64371;47.566;19.086;2023-05-23T11:01:22;100000.28;;;27.59;39.54
75759;BME280;64371;47.566;19.086;2023-05-23T11:04:27;99990.75;;;27.85;39.71
75759;BME280;64371;47.566;19.086;2023-05-23T11:07:31;99995.72;;;27.90;39.13
75759;BME280;64371;47.566;19.086;2023-05-23T11:10:59;99985.88;;;28.07;38.66
75759;BME280;64371;47.566;19.086;2023-05-23T11:14:04;99981.44;;;28.50;38.21
75759;BME280;64371;47.566;19.086;2023-05-23T11:17:17;99977.00;;;28.90;36.84
75759;BME280;64371;47.566;19.086;2023-05-23T11:20:29;99977.47;;;28.85;37.26
75759;BME280;64371;47.566;19.086;2023-05-23T11:23:39;99964.75;;;28.52;36.58
75759;BME280;64371;47.566;19.086;2023-05-23T11:26:54;99957.69;;;28.31;38.36
75759;BME280;64371;47.566;19.086;2023-05-23T11:30:12;99955.56;;;28.15;39.29
75759;BME280;64371;47.566;19.086;2023-05-23T11:33:16;99969.72;;;28.87;37.25
75759;BME280;64371;47.566;19.086;2023-05-23T11:36:23;99963.22;;;29.31;36.68
75759;BME280;64371;47.566;19.086;2023-05-23T11:39:25;99960.09;;;29.06;36.76
75759;BME280;64371;47.566;19.086;2023-05-23T11:42:28;99951.09;;;29.35;36.28
75759;BME280;64371;47.566;19.086;2023-05-23T11:45:31;99935.28;;;29.30;36.35
75759;BME280;64371;47.566;19.086;2023-05-23T11:48:35;99936.38;;;28.86;37.38
75759;BME280;64371;47.566;19.086;2023-05-23T11:51:39;99926.44;;;28.76;37.93
75759;BME280;64371;47.566;19.086;2023-05-23T11:54:41;99937.72;;;28.75;38.90
75759;BME280;64371;47.566;19.086;2023-05-23T11:57:48;99927.38;;;28.66;38.25
75759;BME280;64371;47.566;19.086;2023-05-23T12:00:50;99917.13;;;28.51;37.49
75759;BME280;64371;47.566;19.086;2023-05-23T12:03:56;99908.69;;;28.72;37.13
75759;BME280;64371;47.566;19.086;2023-05-23T12:07:03;99908.34;;;28.93;36.28
75759;BME280;64371;47.566;19.086;2023-05-23T12:10:06;99910.59;;;28.75;37.02
75759;BME280;64371;47.566;19.086;2023-05-23T12:13:09;99895.13;;;28.95;35.98
75759;BME280;64371;47.566;19.086;2023-05-23T12:16:12;99895.84;;;28.76;37.02
75759;BME280;64371;47.566;19.086;2023-05-23T12:19:17;99888.94;;;29.18;36.78
75759;BME280;64371;47.566;19.086;2023-05-23T12:22:24;99880.44;;;28.92;36.26
75759;BME280;64371;47.566;19.086;2023-05-23T12:25:27;99880.94;;;28.34;36.98
75759;BME280;64371;47.566;19.086;2023-05-23T12:28:42;99884.94;;;28.26;39.89
75759;BME280;64371;47.566;19.086;2023-05-23T12:31:49;99877.94;;;27.98;39.65
75759;BME280;64371;47.566;19.086;2023-05-23T12:34:52;99866.19;;;28.39;37.50
75759;BME280;64371;47.566;19.086;2023-05-23T12:37:55;99865.78;;;28.37;37.16
75759;BME280;64371;47.566;19.086;2023-05-23T12:41:09;99864.72;;;28.04;37.54
75759;BME280;64371;47.566;19.086;2023-05-23T12:44:15;99871.38;;;27.66;39.28
75759;BME280;64371;47.566;19.086;2023-05-23T12:47:17;99864.47;;;27.91;39.04
75759;BME280;64371;47.566;19.086;2023-05-23T12:50:21;99856.56;;;27.40;39.58
75759;BME280;64371;47.566;19.086;2023-05-23T12:53:25;99836.66;;;27.20;39.83
75759;BME280;64371;47.566;19.086;2023-05-23T12:56:27;99856.03;;;27.52;39.04
75759;BME280;64371;47.566;19.086;2023-05-23T12:59:30;99849.53;;;28.37;37.16
75759;BME280;64371;47.566;19.086;2023-05-23T13:02:32;99841.91;;;28.55;37.44
75759;BME280;64371;47.566;19.086;2023-05-23T13:05:35;99835.66;;;28.58;37.57
75759;BME280;64371;47.566;19.086;2023-05-23T13:08:37;99832.72;;;28.72;36.97
75759;BME280;64371;47.566;19.086;2023-05-23T13:11:40;99834.44;;;28.62;36.98
75759;BME280;64371;47.566;19.086;2023-05-23T13:14:43;99833.66;;;28.62;37.98
75759;BME280;64371;47.566;19.086;2023-05-23T13:17:45;99837.25;;;28.78;36.55
75759;BME280;64371;47.566;19.086;2023-05-23T13:20:51;99828.44;;;28.74;36.34
75759;BME280;64371;47.566;19.086;2023-05-23T13:23:53;99824.09;;;28.00;36.70
75759;BME280;64371;47.566;19.086;2023-05-23T13:26:57;99834.31;;;27.89;37.56
75759;BME280;64371;47.566;19.086;2023-05-23T13:30:00;99823.38;;;27.96;36.63
75759;BME280;64371;47.566;19.086;2023-05-23T13:33:02;99822.38;;;28.40;36.83
75759;BME280;64371;47.566;19.086;2023-05-23T13:36:06;99824.16;;;28.73;36.52
75759;BME280;64371;47.566;19.086;2023-05-23T13:39:08;99817.63;;;28.94;35.99
75759;BME280;64371;47.566;19.086;2023-05-23T13:42:11;99825.22;;;29.03;36.30
75759;BME280;64371;47.566;19.086;2023-05-23T13:45:13;99819.09;;;28.25;37.62
75759;BME280;64371;47.566;19.086;2023-05-23T13:48:16;99813.06;;;28.41;36.82
75759;BME280;64371;47.566;19.086;2023-05-23T13:51:19;99810.81;;;28.63;36.50
75759;BME280;64371;47.566;19.086;2023-05-23T13:54:21;99820.38;;;28.90;36.04
75759;BME280;64371;47.566;19.086;2023-05-23T13:57:23;99816.53;;;28.42;37.43
75759;BME280;64371;47.566;19.086;2023-05-23T14:00:26;99813.22;;;29.00;35.89
75759;BME280;64371;47.566;19.086;2023-05-23T14:03:28;99803.22;;;28.51;36.57
75759;BME280;64371;47.566;19.086;2023-05-23T14:06:30;99795.91;;;27.94;37.38
75759;BME280;64371;47.566;19.086;2023-05-23T14:09:34;99808.41;;;28.15;36.14
75759;BME280;64371;47.566;19.086;2023-05-23T14:12:36;99804.47;;;28.19;36.80
75759;BME280;64371;47.566;19.086;2023-05-23T14:15:41;99803.97;;;27.98;37.25
75759;BME280;64371;47.566;19.086;2023-05-23T14:18:43;99794.28;;;28.27;34.97
75759;BME280;64371;47.566;19.086;2023-05-23T14:21:46;99787.94;;;28.37;36.42
75759;BME280;64371;47.566;19.086;2023-05-23T14:24:49;99789.06;;;28.40;35.16
75759;BME280;64371;47.566;19.086;2023-05-23T14:27:51;99787.84;;;28.17;35.51
75759;BME280;64371;47.566;19.086;2023-05-23T14:30:54;99786.13;;;28.04;38.11
75759;BME280;64371;47.566;19.086;2023-05-23T14:33:56;99788.38;;;28.09;37.23
75759;BME280;64371;47.566;19.086;2023-05-23T14:36:59;99795.41;;;28.29;35.96
75759;BME280;64371;47.566;19.086;2023-05-23T14:40:03;99782.97;;;28.09;36.57
75759;BME280;64371;47.566;19.086;2023-05-23T14:43:06;99784.44;;;28.13;36.62
75759;BME280;64371;47.566;19.086;2023-05-23T14:46:09;99785.72;;;28.05;36.65
75759;BME280;64371;47.566;19.086;2023-05-23T14:49:11;99790.34;;;28.32;35.69
75759;BME280;64371;47.566;19.086;2023-05-23T14:52:15;99789.38;;;28.68;34.63
75759;BME280;64371;47.566;19.086;2023-05-23T14:55:18;99791.44;;;28.61;34.53
75759;BME280;64371;47.566;19.086;2023-05-23T14:58:21;99799.59;;;29.04;34.21
75759;BME280;64371;47.566;19.086;2023-05-23T15:01:24;99797.28;;;29.02;33.66
75759;BME280;64371;47.566;19.086;2023-05-23T15:04:26;99811.28;;;29.01;32.46
75759;BME280;64371;47.566;19.086;2023-05-23T15:07:30;99802.19;;;29.11;33.07
75759;BME280;64371;47.566;19.086;2023-05-23T15:10:33;99805.81;;;29.04;33.00
75759;BME280;64371;47.566;19.086;2023-05-23T15:13:35;99807.41;;;28.78;34.68
75759;BME280;64371;47.566;19.086;2023-05-23T15:16:38;99794.63;;;28.79;34.18
75759;BME280;64371;47.566;19.086;2023-05-23T15:19:45;99802.13;;;28.71;34.26
75759;BME280;64371;47.566;19.086;2023-05-23T15:22:48;99804.06;;;28.71;34.09
75759;BME280;64371;47.566;19.086;2023-05-23T15:25:50;99808.53;;;28.81;34.63
75759;BME280;64371;47.566;19.086;2023-05-23T15:28:53;99808.38;;;28.68;33.93
75759;BME280;64371;47.566;19.086;2023-05-23T15:31:55;99813.34;;;28.23;34.32
75759;BME280;64371;47.566;19.086;2023-05-23T15:34:58;99822.50;;;26.61;39.82
75759;BME280;64371;47.566;19.086;2023-05-23T15:38:00;99817.44;;;26.08;40.97
75759;BME280;64371;47.566;19.086;2023-05-23T15:41:02;99803.69;;;25.81;41.06
75759;BME280;64371;47.566;19.086;2023-05-23T15:44:06;99808.38;;;25.74;41.64
75759;BME280;64371;47.566;19.086;2023-05-23T15:47:12;99805.75;;;25.49;42.55
75759;BME280;64371;47.566;19.086;2023-05-23T15:50:15;99800.78;;;25.47;42.96
75759;BME280;64371;47.566;19.086;2023-05-23T15:53:19;99796.53;;;25.46;43.42
75759;BME280;64371;47.566;19.086;2023-05-23T15:56:22;99793.53;;;25.13;42.27
75759;BME280;64371;47.566;19.086;2023-05-23T15:59:24;99780.06;;;24.74;43.33
75759;BME280;64371;47.566;19.086;2023-05-23T16:02:27;99791.63;;;24.57;43.89